createdAt,value
2023-02-20T00:01:54.546Z,3.43
2023-02-20T00:04:23.020Z,3.10
2023-02-20T00:06:51.036Z,3.10
2023-02-20T00:09:20.007Z,6.27
2023-02-20T00:11:54.359Z,2.30
2023-02-20T00:14:24.009Z,4.70
2023-02-20T00:17:14.492Z,8.77
2023-02-20T00:19:42.460Z,4.20
2023-02-20T00:22:10.900Z,5.43
2023-02-20T00:24:39.142Z,5.57
2023-02-20T00:27:30.592Z,4.40
2023-02-20T00:29:58.643Z,5.20
2023-02-20T00:32:26.629Z,9.00
2023-02-20T00:34:55.524Z,8.70
2023-02-20T00:37:23.730Z,6.97
2023-02-20T00:39:51.755Z,7.97
2023-02-20T00:45:11.361Z,11.30
2023-02-20T00:47:41.310Z,9.90
2023-02-20T00:50:13.257Z,11.10
2023-02-20T00:52:41.460Z,9.93
2023-02-20T00:55:09.889Z,14.53
2023-02-20T00:58:00.794Z,15.00
2023-02-20T01:00:32.148Z,13.47
2023-02-20T01:03:02.297Z,12.93
2023-02-20T01:05:31.153Z,13.53
2023-02-20T01:07:59.834Z,12.10
2023-02-20T01:10:28.218Z,14.40
2023-02-20T01:12:56.272Z,16.13
2023-02-20T01:15:24.769Z,21.80
2023-02-20T01:17:54.111Z,16.50
2023-02-20T01:20:22.808Z,18.83
2023-02-20T01:22:51.369Z,19.87
2023-02-20T01:25:20.308Z,16.03
2023-02-20T01:27:48.327Z,19.13
2023-02-20T01:30:16.957Z,18.77
2023-02-20T01:32:45.016Z,22.43
2023-02-20T01:35:14.419Z,20.93
2023-02-20T01:37:42.829Z,30.80
2023-02-20T01:40:17.596Z,17.47
2023-02-20T01:42:45.867Z,17.20
2023-02-20T01:45:21.857Z,20.73
2023-02-20T01:47:55.193Z,17.10
2023-02-20T01:50:29.289Z,16.70
2023-02-20T01:53:02.484Z,16.70
2023-02-20T01:55:34.213Z,18.80
2023-02-20T01:58:06.308Z,14.90
2023-02-20T02:00:34.843Z,15.83
2023-02-20T02:03:07.110Z,16.57
2023-02-20T02:05:42.890Z,16.80
2023-02-20T02:08:14.393Z,14.90
2023-02-20T02:10:52.212Z,12.60
2023-02-20T02:13:22.330Z,13.40
2023-02-20T02:15:54.546Z,14.03
2023-02-20T02:18:37.108Z,19.13
2023-02-20T02:21:41.772Z,12.63
2023-02-20T02:24:45.334Z,14.90
2023-02-20T02:27:52.761Z,18.13
2023-02-20T02:30:50.637Z,14.37
2023-02-20T02:33:54.308Z,16.50
2023-02-20T02:36:34.857Z,15.23
2023-02-20T02:39:36.594Z,13.17
2023-02-20T02:42:10.564Z,17.03
2023-02-20T02:44:45.561Z,14.83
2023-02-20T02:47:19.317Z,14.40
2023-02-20T02:49:55.947Z,12.30
2023-02-20T02:52:46.433Z,19.00
2023-02-20T02:55:18.308Z,16.53
2023-02-20T02:57:46.439Z,16.30
2023-02-20T03:00:19.342Z,16.90
2023-02-20T03:02:57.381Z,18.17
2023-02-20T03:05:40.336Z,17.60
2023-02-20T03:08:22.187Z,17.33
2023-02-20T03:10:54.813Z,14.60
2023-02-20T03:13:45.478Z,15.07
2023-02-20T03:16:15.889Z,24.50
2023-02-20T03:18:46.269Z,15.90
2023-02-20T03:21:19.531Z,21.67
2023-02-20T03:23:54.181Z,25.20
2023-02-20T03:26:29.913Z,14.53
2023-02-20T03:29:02.814Z,14.10
2023-02-20T03:31:36.673Z,11.90
2023-02-20T03:34:27.837Z,10.43
2023-02-20T03:37:22.376Z,12.40
2023-02-20T03:40:13.801Z,16.93
2023-02-20T03:43:06.460Z,17.00
2023-02-20T03:45:43.363Z,15.90
2023-02-20T03:48:25.065Z,16.30
2023-02-20T03:50:53.526Z,14.40
2023-02-20T03:53:29.705Z,18.77
2023-02-20T03:56:03.311Z,17.00
2023-02-20T03:58:39.354Z,19.50
2023-02-20T04:01:11.078Z,14.20
2023-02-20T04:03:42.588Z,17.30
2023-02-20T04:06:14.368Z,17.70
2023-02-20T04:08:48.383Z,14.73
2023-02-20T04:11:22.136Z,11.43
2023-02-20T04:13:54.490Z,13.83
2023-02-20T04:16:23.923Z,12.23
2023-02-20T04:18:53.358Z,15.30
2023-02-20T04:21:28.551Z,12.80
2023-02-20T04:24:04.435Z,14.33
2023-02-20T04:26:35.802Z,13.47
2023-02-20T04:29:05.445Z,17.17
2023-02-20T04:31:36.414Z,18.73
2023-02-20T04:34:04.805Z,14.30
2023-02-20T04:36:33.007Z,14.93
2023-02-20T04:39:02.385Z,13.10
2023-02-20T04:41:34.875Z,17.67
2023-02-20T04:44:21.240Z,14.30
2023-02-20T04:46:51.292Z,15.70
2023-02-20T04:49:22.353Z,9.40
2023-02-20T04:51:54.228Z,13.00
2023-02-20T04:54:23.711Z,12.70
2023-02-20T04:56:53.311Z,12.23
2023-02-20T04:59:24.557Z,17.53
2023-02-20T05:01:54.713Z,20.10
2023-02-20T05:04:23.366Z,9.60
2023-02-20T05:06:54.433Z,12.33
2023-02-20T05:09:23.851Z,12.50
2023-02-20T05:11:53.697Z,11.60
2023-02-20T05:14:23.412Z,12.40
2023-02-20T05:16:52.522Z,11.63
2023-02-20T05:19:20.562Z,14.87
2023-02-20T05:22:06.904Z,13.17
2023-02-20T05:24:34.991Z,13.70
2023-02-20T05:27:04.548Z,18.20
2023-02-20T05:29:33.178Z,16.20
2023-02-20T05:32:01.197Z,14.73
2023-02-20T05:34:30.191Z,12.60
2023-02-20T05:36:58.178Z,9.67
2023-02-20T05:39:26.681Z,12.00
2023-02-20T05:41:54.688Z,10.17
2023-02-20T05:44:24.049Z,15.53
2023-02-20T05:46:55.414Z,17.07
2023-02-20T05:49:23.971Z,11.93
2023-02-20T05:51:53.097Z,10.77
2023-02-20T05:54:21.683Z,10.27
2023-02-20T05:56:49.661Z,11.87
2023-02-20T05:59:21.069Z,10.13
2023-02-20T06:01:52.903Z,21.23
2023-02-20T06:04:23.248Z,20.13
2023-02-20T06:06:52.235Z,11.87
2023-02-20T06:09:20.597Z,7.60
2023-02-20T06:11:53.948Z,11.73
2023-02-20T06:14:27.062Z,12.27
2023-02-20T06:16:58.674Z,11.00
2023-02-20T06:19:27.401Z,10.40
2023-02-20T06:21:58.745Z,13.50
2023-02-20T06:24:27.494Z,10.67
2023-02-20T06:26:55.520Z,11.70
2023-02-20T06:29:27.910Z,10.30
2023-02-20T06:31:59.297Z,13.53
2023-02-20T06:34:31.899Z,12.50
2023-02-20T06:37:03.213Z,14.53
2023-02-20T06:39:33.444Z,11.03
2023-02-20T06:42:01.545Z,8.90
2023-02-20T06:44:29.709Z,13.10
2023-02-20T06:47:01.444Z,15.30
2023-02-20T06:49:31.434Z,13.10
2023-02-20T06:51:59.487Z,15.63
2023-02-20T06:54:27.635Z,18.07
2023-02-20T06:56:57.709Z,16.20
2023-02-20T06:59:27.771Z,13.57
2023-02-20T07:01:55.801Z,14.23
2023-02-20T07:04:28.130Z,12.23
2023-02-20T07:06:56.415Z,15.43
2023-02-20T07:09:27.681Z,15.50
2023-02-20T07:11:56.354Z,13.07
2023-02-20T07:14:25.430Z,17.70
2023-02-20T07:16:53.456Z,19.80
2023-02-20T07:19:22.085Z,22.07
2023-02-20T07:21:54.720Z,15.40
2023-02-20T07:24:23.829Z,18.77
2023-02-20T07:26:51.996Z,20.20
2023-02-20T07:29:20.029Z,20.53
2023-02-20T07:31:48.613Z,29.10
2023-02-20T07:34:19.254Z,23.43
2023-02-20T07:36:48.617Z,15.97
2023-02-20T07:39:18.039Z,22.17
2023-02-20T07:41:46.736Z,19.10
2023-02-20T07:44:39.549Z,23.87
2023-02-20T07:47:07.928Z,26.57
2023-02-20T07:49:37.783Z,20.57
2023-02-20T07:52:06.797Z,23.73
2023-02-20T07:54:36.341Z,22.63
2023-02-20T07:57:04.908Z,18.30
2023-02-20T07:59:33.183Z,19.70
2023-02-20T08:02:01.163Z,32.73
2023-02-20T08:04:29.949Z,21.60
2023-02-20T08:06:57.961Z,25.27
2023-02-20T08:09:28.329Z,15.77
2023-02-20T08:11:58.899Z,21.23
2023-02-20T08:14:28.503Z,17.23
2023-02-20T08:16:56.543Z,17.63
2023-02-20T08:19:24.614Z,15.57
2023-02-20T08:21:54.467Z,18.70
2023-02-20T08:24:22.522Z,25.10
2023-02-20T08:26:51.681Z,26.03
2023-02-20T08:29:21.048Z,16.27
2023-02-20T08:31:49.708Z,21.00
2023-02-20T08:34:18.486Z,24.70
2023-02-20T08:36:47.422Z,17.00
2023-02-20T08:39:15.505Z,21.07
2023-02-20T08:41:44.342Z,24.63
2023-02-20T08:44:16.003Z,20.93
2023-02-20T08:46:50.359Z,27.10
2023-02-20T08:49:20.663Z,24.27
2023-02-20T08:51:55.404Z,25.67
2023-02-20T08:54:23.581Z,24.10
2023-02-20T08:56:52.017Z,24.13
2023-02-20T08:59:20.204Z,15.90
2023-02-20T09:01:49.936Z,22.67
2023-02-20T09:04:20.543Z,23.17
2023-02-20T09:06:49.032Z,18.10
2023-02-20T09:09:17.372Z,20.43
2023-02-20T09:11:45.569Z,22.07
2023-02-20T09:14:14.220Z,17.30
2023-02-20T09:16:43.363Z,20.77
2023-02-20T09:19:16.101Z,23.80
2023-02-20T09:21:46.945Z,17.60
2023-02-20T09:24:15.093Z,21.13
2023-02-20T09:26:43.550Z,24.60
2023-02-20T09:29:12.496Z,20.90
2023-02-20T09:31:41.532Z,23.77
2023-02-20T09:34:10.123Z,27.40
2023-02-20T09:36:39.892Z,23.07
2023-02-20T09:39:08.872Z,22.53
2023-02-20T09:41:50.475Z,24.07
2023-02-20T09:44:26.905Z,20.87
2023-02-20T09:47:03.272Z,30.30
2023-02-20T09:49:34.855Z,20.30
2023-02-20T09:52:12.059Z,20.53
2023-02-20T09:54:45.392Z,18.30
2023-02-20T09:57:19.827Z,28.03
2023-02-20T09:59:52.000Z,18.47
2023-02-20T10:02:24.202Z,21.17
2023-02-20T10:05:01.185Z,19.40
2023-02-20T10:07:37.641Z,20.60
2023-02-20T10:10:20.844Z,21.27
2023-02-20T10:13:02.613Z,25.57
2023-02-20T10:15:36.196Z,15.40
2023-02-20T10:18:18.139Z,28.77
2023-02-20T10:20:57.908Z,19.70
2023-02-20T10:23:38.330Z,20.83
2023-02-20T10:26:12.817Z,22.17
2023-02-20T10:28:41.957Z,25.13
2023-02-20T10:31:18.807Z,19.70
2023-02-20T10:33:51.454Z,18.27
2023-02-20T10:36:26.150Z,22.80
2023-02-20T10:39:02.464Z,23.07
2023-02-20T10:41:35.171Z,22.83
2023-02-20T10:44:12.334Z,20.37
2023-02-20T10:46:49.200Z,22.80
2023-02-20T10:49:25.453Z,20.80
2023-02-20T10:52:00.506Z,17.47
2023-02-20T10:54:38.065Z,19.20
2023-02-20T10:57:12.461Z,27.37
2023-02-20T10:59:46.468Z,24.40
2023-02-20T11:02:19.875Z,20.70
2023-02-20T11:04:54.142Z,22.10
2023-02-20T11:07:23.837Z,21.77
2023-02-20T11:09:53.678Z,23.47
2023-02-20T11:12:32.394Z,20.43
2023-02-20T11:15:06.402Z,16.30
2023-02-20T11:17:38.170Z,23.93
2023-02-20T11:20:28.778Z,19.70
2023-02-20T11:22:57.043Z,14.67
2023-02-20T11:25:30.322Z,19.37
2023-02-20T11:28:01.664Z,26.03
2023-02-20T11:30:36.448Z,20.60
2023-02-20T11:33:10.813Z,18.87
2023-02-20T11:35:41.702Z,21.83
2023-02-20T11:38:35.815Z,23.73
2023-02-20T11:41:16.637Z,14.50
2023-02-20T11:44:00.897Z,16.40
2023-02-20T11:46:29.787Z,17.77
2023-02-20T11:49:05.357Z,18.30
2023-02-20T11:51:39.409Z,19.83
2023-02-20T11:54:32.675Z,21.47
2023-02-20T11:57:06.295Z,19.80
2023-02-20T11:59:40.576Z,17.20
2023-02-20T12:02:17.940Z,17.33
2023-02-20T12:05:01.773Z,15.27
2023-02-20T12:07:37.917Z,23.50
2023-02-20T12:10:22.899Z,17.00
2023-02-20T12:12:54.161Z,16.50
2023-02-20T12:15:24.812Z,16.60
2023-02-20T12:18:23.471Z,23.27
2023-02-20T12:20:59.090Z,18.20
2023-02-20T12:23:36.609Z,12.50
2023-02-20T12:26:16.113Z,22.67
2023-02-20T12:28:54.931Z,16.03
2023-02-20T12:31:33.832Z,20.97
2023-02-20T12:34:20.224Z,17.60
2023-02-20T12:36:53.311Z,18.90
2023-02-20T12:39:30.632Z,25.30
2023-02-20T12:42:10.239Z,16.90
2023-02-20T12:45:00.030Z,18.03
2023-02-20T12:47:32.309Z,17.33
2023-02-20T12:50:39.878Z,23.30
2023-02-20T12:53:20.663Z,15.93
2023-02-20T12:56:10.704Z,17.13
2023-02-20T12:58:48.595Z,19.63
2023-02-20T13:01:34.259Z,22.80
2023-02-20T13:04:20.178Z,18.93
2023-02-20T13:06:56.606Z,18.40
2023-02-20T13:09:27.807Z,22.77
2023-02-20T13:12:05.825Z,23.40
2023-02-20T13:14:57.179Z,22.83
2023-02-20T13:17:36.899Z,20.20
2023-02-20T13:20:19.188Z,20.90
2023-02-20T13:23:01.291Z,21.00
2023-02-20T13:25:41.568Z,23.43
2023-02-20T13:28:34.008Z,21.20
2023-02-20T13:31:12.564Z,18.20
2023-02-20T13:33:44.231Z,27.07
2023-02-20T13:36:42.918Z,25.03
2023-02-20T13:39:42.711Z,19.30
2023-02-20T13:42:31.616Z,27.30
2023-02-20T13:45:00.918Z,17.13
2023-02-20T13:47:37.478Z,25.57
2023-02-20T13:50:34.607Z,20.93
2023-02-20T13:53:06.814Z,19.13
2023-02-20T13:55:35.339Z,18.07
2023-02-20T13:58:13.751Z,18.37
2023-02-20T14:00:56.647Z,30.23
2023-02-20T14:03:26.928Z,39.33
2023-02-20T14:06:21.855Z,20.93
2023-02-20T14:08:52.628Z,21.70
2023-02-20T14:11:29.132Z,26.90
2023-02-20T14:13:58.756Z,26.43
2023-02-20T14:16:33.160Z,24.23
2023-02-20T14:19:03.506Z,20.53
2023-02-20T14:21:36.329Z,19.87
2023-02-20T14:24:19.215Z,16.83
2023-02-20T14:26:48.793Z,27.57
2023-02-20T14:29:29.744Z,25.27
2023-02-20T14:31:59.917Z,25.40
2023-02-20T14:34:34.998Z,22.73
2023-02-20T14:37:12.853Z,29.47
2023-02-20T14:39:51.764Z,24.20
2023-02-20T14:42:24.525Z,23.37
2023-02-20T14:44:59.821Z,22.43
2023-02-20T14:47:28.117Z,20.87
2023-02-20T14:50:08.931Z,27.23
2023-02-20T14:52:39.393Z,26.27
2023-02-20T14:55:08.032Z,25.70
2023-02-20T14:57:36.159Z,26.80
2023-02-20T15:00:34.752Z,24.43
2023-02-20T15:03:20.728Z,26.63
2023-02-20T15:06:02.310Z,33.83
2023-02-20T15:08:35.481Z,30.10
2023-02-20T15:11:10.651Z,33.77
2023-02-20T15:13:41.880Z,31.30
2023-02-20T15:16:19.723Z,25.10
2023-02-20T15:18:50.336Z,25.33
2023-02-20T15:21:38.618Z,24.53
2023-02-20T15:24:28.721Z,32.23
2023-02-20T15:27:09.329Z,34.10
2023-02-20T15:29:38.268Z,27.20
2023-02-20T15:32:15.097Z,29.33
2023-02-20T15:34:47.524Z,26.80
2023-02-20T15:37:27.338Z,34.57
2023-02-20T15:40:18.978Z,32.80
2023-02-20T15:42:48.028Z,26.50
2023-02-20T15:45:16.756Z,30.63
2023-02-20T15:47:45.657Z,26.83
2023-02-20T15:50:13.706Z,26.57
2023-02-20T15:52:43.407Z,29.60
2023-02-20T15:55:17.946Z,30.00
2023-02-20T15:57:47.674Z,32.47
2023-02-20T16:00:22.699Z,31.07
2023-02-20T16:02:55.133Z,30.77
2023-02-20T16:05:26.155Z,31.83
2023-02-20T16:07:54.765Z,30.50
2023-02-20T16:10:24.602Z,29.60
2023-02-20T16:12:56.496Z,31.40
2023-02-20T16:15:25.182Z,33.20
2023-02-20T16:17:54.755Z,28.23
2023-02-20T16:20:24.916Z,35.17
2023-02-20T16:22:53.333Z,36.53
2023-02-20T16:25:25.541Z,36.47
2023-02-20T16:27:55.909Z,30.33
2023-02-20T16:30:33.697Z,31.93
2023-02-20T16:33:03.208Z,33.97
2023-02-20T16:35:31.266Z,28.33
2023-02-20T16:37:59.356Z,30.60
2023-02-20T16:40:28.916Z,32.00
2023-02-20T16:42:57.357Z,26.97
2023-02-20T16:45:25.670Z,28.23
2023-02-20T16:47:56.195Z,31.00
2023-02-20T16:50:29.738Z,30.20
2023-02-20T16:53:02.282Z,31.63
2023-02-20T16:55:33.926Z,31.53
2023-02-20T16:58:02.827Z,37.10
2023-02-20T17:00:33.845Z,29.93
2023-02-20T17:03:02.456Z,30.27
2023-02-20T17:05:35.109Z,29.17
2023-02-20T17:08:08.733Z,34.80
2023-02-20T17:10:39.429Z,32.17
2023-02-20T17:13:07.494Z,32.87
2023-02-20T17:15:37.592Z,30.77
2023-02-20T17:18:06.769Z,34.93
2023-02-20T17:20:36.708Z,35.20
2023-02-20T17:23:05.579Z,36.27
2023-02-20T17:25:35.851Z,38.03
2023-02-20T17:28:07.487Z,34.50
2023-02-20T17:30:36.437Z,38.07
2023-02-20T17:33:04.571Z,31.80
2023-02-20T17:35:33.431Z,32.07
2023-02-20T17:38:01.444Z,33.70
2023-02-20T17:40:29.474Z,33.30
2023-02-20T17:43:01.151Z,33.47
2023-02-20T17:45:30.724Z,38.03
2023-02-20T17:50:49.025Z,31.40
2023-02-20T17:53:18.434Z,30.50
2023-02-20T17:55:47.252Z,30.83
2023-02-20T17:58:16.761Z,30.17
2023-02-20T18:00:47.731Z,27.77
2023-02-20T18:03:17.102Z,30.80
2023-02-20T18:05:45.198Z,36.67
2023-02-20T18:08:13.260Z,32.03
2023-02-20T18:10:41.371Z,32.67
2023-02-20T18:13:09.948Z,37.03
2023-02-20T18:15:41.397Z,34.23
2023-02-20T18:18:14.512Z,29.83
2023-02-20T18:20:44.125Z,31.67
2023-02-20T18:23:12.499Z,38.20
2023-02-20T18:25:41.326Z,35.23
2023-02-20T18:28:11.776Z,33.80
2023-02-20T18:30:41.213Z,36.87
2023-02-20T18:33:11.302Z,34.03
2023-02-20T18:35:39.792Z,33.90
2023-02-20T18:38:07.958Z,35.57
2023-02-20T18:40:37.110Z,27.87
2023-02-20T18:43:11.075Z,35.40
2023-02-20T18:45:43.655Z,33.63
2023-02-20T18:48:13.918Z,35.93
2023-02-20T18:50:42.725Z,36.70
2023-02-20T18:53:11.421Z,40.27
2023-02-20T18:55:39.425Z,39.50
2023-02-20T18:58:07.910Z,33.83
2023-02-20T19:00:38.848Z,28.67
2023-02-20T19:03:08.162Z,29.10
2023-02-20T19:05:37.695Z,32.67
2023-02-20T19:08:07.762Z,32.27
2023-02-20T19:10:36.218Z,31.07
2023-02-20T19:13:06.080Z,29.87
2023-02-20T19:15:34.076Z,34.10
2023-02-20T19:18:02.507Z,38.23
2023-02-20T19:20:31.958Z,30.47
2023-02-20T19:23:02.665Z,36.00
2023-02-20T19:25:31.693Z,35.63
2023-02-20T19:27:59.721Z,38.27
2023-02-20T19:30:28.577Z,41.70
2023-02-20T19:32:57.061Z,37.00
2023-02-20T19:35:25.104Z,36.93
2023-02-20T19:37:54.014Z,43.10
2023-02-20T19:40:26.384Z,30.37
2023-02-20T19:42:54.396Z,33.90
2023-02-20T19:45:22.477Z,36.27
2023-02-20T19:47:51.758Z,34.13
2023-02-20T19:50:20.757Z,40.93
2023-02-20T19:52:48.794Z,34.27
2023-02-20T19:55:18.572Z,35.67
2023-02-20T19:57:48.064Z,39.27
2023-02-20T20:00:20.572Z,34.13
2023-02-20T20:02:53.220Z,30.83
2023-02-20T20:05:23.798Z,31.20
2023-02-20T20:07:51.885Z,26.17
2023-02-20T20:10:20.376Z,33.80
2023-02-20T20:12:55.802Z,29.60
2023-02-20T20:15:29.822Z,28.10
2023-02-20T20:18:00.407Z,36.50
2023-02-20T20:20:30.932Z,34.50
2023-02-20T20:23:02.061Z,34.07
2023-02-20T20:25:30.610Z,30.83
2023-02-20T20:28:02.507Z,33.50
2023-02-20T20:30:34.602Z,34.00
2023-02-20T20:33:03.527Z,38.57
2023-02-20T20:35:31.987Z,30.87
2023-02-20T20:38:02.800Z,35.57
2023-02-20T20:40:31.001Z,31.50
2023-02-20T20:43:00.638Z,38.10
2023-02-20T20:45:29.501Z,35.40
2023-02-20T20:47:57.732Z,30.40
2023-02-20T20:50:28.783Z,29.07
2023-02-20T20:52:59.105Z,32.70
2023-02-20T20:55:28.312Z,33.17
2023-02-20T20:57:57.137Z,34.03
2023-02-20T21:00:30.705Z,31.73
2023-02-20T21:02:59.098Z,25.87
2023-02-20T21:05:28.953Z,29.93
2023-02-20T21:07:57.660Z,28.23
2023-02-20T21:10:27.813Z,29.53
2023-02-20T21:12:58.089Z,31.50
2023-02-20T21:15:29.426Z,31.43
2023-02-20T21:17:57.653Z,32.87
2023-02-20T21:20:29.679Z,27.57
2023-02-20T21:22:58.461Z,32.33
2023-02-20T21:25:27.440Z,35.27
2023-02-20T21:27:57.053Z,36.07
2023-02-20T21:30:27.954Z,34.27
2023-02-20T21:32:56.975Z,31.60
2023-02-20T21:35:26.059Z,30.53
2023-02-20T21:37:55.530Z,30.60
2023-02-20T21:40:24.138Z,32.93
2023-02-20T21:43:09.793Z,33.37
2023-02-20T21:45:43.164Z,28.17
2023-02-20T21:48:14.632Z,27.30
2023-02-20T21:50:44.031Z,26.10
2023-02-20T21:53:17.275Z,34.93
2023-02-20T21:55:46.535Z,27.50
2023-02-20T21:58:22.541Z,31.13
2023-02-20T22:00:51.681Z,28.83
2023-02-20T22:03:18.607Z,39.10
2023-02-20T22:05:45.998Z,30.53
2023-02-20T22:08:31.444Z,30.33
2023-02-20T22:11:19.876Z,29.27
2023-02-20T22:14:05.419Z,29.30
2023-02-20T22:16:53.002Z,40.40
2023-02-20T22:19:38.460Z,35.20
2023-02-20T22:22:24.761Z,27.00
2023-02-20T22:25:10.612Z,38.33
2023-02-20T22:27:56.993Z,29.13
2023-02-20T22:30:42.531Z,30.27
2023-02-20T22:33:30.509Z,27.63
2023-02-20T22:36:16.034Z,33.73
2023-02-20T22:39:01.829Z,33.17
2023-02-20T22:41:47.860Z,29.77
2023-02-20T22:44:35.676Z,27.70
2023-02-20T22:47:21.906Z,32.17
2023-02-20T22:50:12.201Z,28.70
2023-02-20T22:52:58.030Z,29.03
2023-02-20T22:55:44.396Z,28.93
2023-02-20T22:58:29.706Z,29.17
2023-02-20T23:01:16.047Z,31.27
2023-02-20T23:04:02.127Z,32.63
2023-02-20T23:06:49.456Z,35.40
2023-02-20T23:09:35.848Z,27.37
2023-02-20T23:12:21.271Z,33.13
2023-02-20T23:15:10.924Z,38.13
2023-02-20T23:17:56.797Z,34.23
2023-02-20T23:20:43.032Z,28.30
2023-02-20T23:23:31.960Z,38.50
2023-02-20T23:26:19.276Z,33.37
2023-02-20T23:29:05.192Z,35.67
2023-02-20T23:31:55.078Z,32.03
2023-02-20T23:34:41.363Z,36.03
2023-02-20T23:37:28.182Z,33.97
2023-02-20T23:40:19.101Z,35.07
2023-02-20T23:43:07.892Z,29.20
2023-02-20T23:45:53.359Z,37.40
2023-02-20T23:48:40.914Z,41.50
2023-02-20T23:51:30.581Z,34.93
2023-02-20T23:54:17.406Z,36.20
2023-02-20T23:57:04.230Z,31.47
2023-02-20T23:59:50.177Z,34.53
